sensor_id;sensor_type;location;lat;lon;timestamp;pressure;altitude;pressure_sealevel;temperature;humidity
63554;BME280;49699;48.072;7.800;2022-08-27T00:00:17;99283.03;;;20.53;76.92
63554;BME280;49699;48.072;7.800;2022-08-27T00:02:43;99282.19;;;20.52;76.87
63554;BME280;49699;48.072;7.800;2022-08-27T00:05:10;99290.13;;;20.52;76.96
63554;BME280;49699;48.072;7.800;2022-08-27T00:07:36;99282.50;;;20.49;76.99
63554;BME280;49699;48.072;7.800;2022-08-27T00:10:03;99285.97;;;20.50;76.89
63554;BME280;49699;48.072;7.800;2022-08-27T00:12:29;99281.13;;;20.45;76.77
63554;BME280;49699;48.072;7.800;2022-08-27T00:14:54;99278.66;;;20.43;77.05
63554;BME280;49699;48.072;7.800;2022-08-27T00:17:20;99266.59;;;20.41;77.29
63554;BME280;49699;48.072;7.800;2022-08-27T00:19:45;99265.09;;;20.38;77.32
63554;BME280;49699;48.072;7.800;2022-08-27T00:22:11;99264.41;;;20.36;77.37
63554;BME280;49699;48.072;7.800;2022-08-27T00:24:36;99269.69;;;20.36;77.34
63554;BME280;49699;48.072;7.800;2022-08-27T00:27:02;99270.66;;;20.35;77.33
63554;BME280;49699;48.072;7.800;2022-08-27T00:29:29;99271.78;;;20.33;77.56
63554;BME280;49699;48.072;7.800;2022-08-27T00:31:54;99270.56;;;20.27;77.72
63554;BME280;49699;48.072;7.800;2022-08-27T00:34:21;99269.06;;;20.25;77.83
63554;BME280;49699;48.072;7.800;2022-08-27T00:36:47;99263.78;;;20.25;78.09
63554;BME280;49699;48.072;7.800;2022-08-27T00:39:12;99264.78;;;20.24;78.09
63554;BME280;49699;48.072;7.800;2022-08-27T00:41:39;99256.84;;;20.24;78.24
63554;BME280;49699;48.072;7.800;2022-08-27T00:44:05;99258.81;;;20.22;78.19
63554;BME280;49699;48.072;7.800;2022-08-27T00:46:36;99258.00;;;20.21;78.35
63554;BME280;49699;48.072;7.800;2022-08-27T00:49:15;99256.47;;;20.19;78.43
63554;BME280;49699;48.072;7.800;2022-08-27T00:51:41;99260.56;;;20.13;78.57
63554;BME280;49699;48.072;7.800;2022-08-27T00:54:08;99258.22;;;20.10;78.85
63554;BME280;49699;48.072;7.800;2022-08-27T00:56:38;99256.41;;;20.10;78.83
63554;BME280;49699;48.072;7.800;2022-08-27T00:59:12;99260.56;;;20.13;78.92
63554;BME280;49699;48.072;7.800;2022-08-27T01:01:41;99257.78;;;20.15;78.69
63554;BME280;49699;48.072;7.800;2022-08-27T01:04:26;99250.66;;;20.15;78.69
63554;BME280;49699;48.072;7.800;2022-08-27T01:06:52;99252.34;;;20.16;78.61
63554;BME280;49699;48.072;7.800;2022-08-27T01:09:17;99254.00;;;20.17;78.71
63554;BME280;49699;48.072;7.800;2022-08-27T01:11:44;99252.88;;;20.20;78.61
63554;BME280;49699;48.072;7.800;2022-08-27T01:14:12;99245.63;;;20.22;78.36
63554;BME280;49699;48.072;7.800;2022-08-27T01:16:41;99247.91;;;20.25;78.22
63554;BME280;49699;48.072;7.800;2022-08-27T01:19:17;99241.50;;;20.27;78.11
63554;BME280;49699;48.072;7.800;2022-08-27T01:21:59;99241.50;;;20.27;78.19
63554;BME280;49699;48.072;7.800;2022-08-27T01:24:51;99229.94;;;20.28;78.27
63554;BME280;49699;48.072;7.800;2022-08-27T01:27:21;99230.94;;;20.27;78.22
63554;BME280;49699;48.072;7.800;2022-08-27T01:29:49;99228.44;;;20.26;78.33
63554;BME280;49699;48.072;7.800;2022-08-27T01:32:18;99226.97;;;20.23;78.37
63554;BME280;49699;48.072;7.800;2022-08-27T01:34:44;99222.66;;;20.22;78.47
63554;BME280;49699;48.072;7.800;2022-08-27T01:37:11;99224.63;;;20.20;78.47
63554;BME280;49699;48.072;7.800;2022-08-27T01:39:37;99221.31;;;20.18;78.68
63554;BME280;49699;48.072;7.800;2022-08-27T01:42:10;99224.78;;;20.19;78.94
63554;BME280;49699;48.072;7.800;2022-08-27T01:47:12;99220.47;;;20.18;78.94
63554;BME280;49699;48.072;7.800;2022-08-27T01:49:38;99223.25;;;20.16;78.93
63554;BME280;49699;48.072;7.800;2022-08-27T01:52:04;99217.59;;;20.11;79.08
63554;BME280;49699;48.072;7.800;2022-08-27T01:54:30;99221.22;;;20.10;79.22
63554;BME280;49699;48.072;7.800;2022-08-27T01:56:56;99215.41;;;20.06;79.28
63554;BME280;49699;48.072;7.800;2022-08-27T01:59:21;99219.91;;;20.06;79.26
63554;BME280;49699;48.072;7.800;2022-08-27T02:01:46;99218.06;;;20.06;79.27
63554;BME280;49699;48.072;7.800;2022-08-27T02:04:12;99213.94;;;20.04;79.62
63554;BME280;49699;48.072;7.800;2022-08-27T02:06:37;99216.88;;;20.01;79.65
63554;BME280;49699;48.072;7.800;2022-08-27T02:09:03;99210.25;;;19.97;79.91
63554;BME280;49699;48.072;7.800;2022-08-27T02:11:28;99210.41;;;19.95;79.89
63554;BME280;49699;48.072;7.800;2022-08-27T02:13:53;99211.38;;;19.94;79.96
63554;BME280;49699;48.072;7.800;2022-08-27T02:16:19;99198.16;;;19.94;80.05
63554;BME280;49699;48.072;7.800;2022-08-27T02:18:46;99196.66;;;19.92;80.17
63554;BME280;49699;48.072;7.800;2022-08-27T02:21:12;99197.50;;;19.92;80.08
63554;BME280;49699;48.072;7.800;2022-08-27T02:23:38;99200.81;;;19.94;80.04
63554;BME280;49699;48.072;7.800;2022-08-27T02:26:06;99203.59;;;19.93;80.15
63554;BME280;49699;48.072;7.800;2022-08-27T02:28:33;99201.94;;;19.92;80.16
63554;BME280;49699;48.072;7.800;2022-08-27T02:30:58;99193.19;;;19.91;80.15
63554;BME280;49699;48.072;7.800;2022-08-27T02:33:25;99198.94;;;19.87;80.41
63554;BME280;49699;48.072;7.800;2022-08-27T02:35:50;99202.88;;;19.83;80.52
63554;BME280;49699;48.072;7.800;2022-08-27T02:38:16;99191.78;;;19.79;80.58
63554;BME280;49699;48.072;7.800;2022-08-27T02:40:41;99197.06;;;19.79;80.70
63554;BME280;49699;48.072;7.800;2022-08-27T02:43:07;99199.84;;;19.77;80.69
63554;BME280;49699;48.072;7.800;2022-08-27T02:45:33;99196.38;;;19.77;80.76
63554;BME280;49699;48.072;7.800;2022-08-27T02:47:58;99192.75;;;19.78;80.50
63554;BME280;49699;48.072;7.800;2022-08-27T02:50:24;99190.13;;;19.78;80.53
63554;BME280;49699;48.072;7.800;2022-08-27T02:52:49;99198.03;;;19.78;80.51
63554;BME280;49699;48.072;7.800;2022-08-27T02:55:15;99195.41;;;19.78;80.65
63554;BME280;49699;48.072;7.800;2022-08-27T02:57:40;99192.75;;;19.78;80.52
63554;BME280;49699;48.072;7.800;2022-08-27T03:00:09;99190.81;;;19.80;80.47
63554;BME280;49699;48.072;7.800;2022-08-27T03:02:35;99184.53;;;19.81;80.34
63554;BME280;49699;48.072;7.800;2022-08-27T03:05:01;99185.38;;;19.82;80.31
63554;BME280;49699;48.072;7.800;2022-08-27T03:07:26;99175.94;;;19.79;80.27
63554;BME280;49699;48.072;7.800;2022-08-27T03:09:51;99176.22;;;19.76;80.71
63554;BME280;49699;48.072;7.800;2022-08-27T03:12:17;99176.69;;;19.71;80.59
63554;BME280;49699;48.072;7.800;2022-08-27T03:14:42;99173.69;;;19.66;80.77
63554;BME280;49699;48.072;7.800;2022-08-27T03:17:08;99177.31;;;19.65;81.11
63554;BME280;49699;48.072;7.800;2022-08-27T03:19:52;99167.72;;;19.64;81.00
63554;BME280;49699;48.072;7.800;2022-08-27T03:22:19;99173.84;;;19.65;80.89
63554;BME280;49699;48.072;7.800;2022-08-27T03:24:45;99168.72;;;19.63;80.90
63554;BME280;49699;48.072;7.800;2022-08-27T03:27:11;99179.94;;;19.65;80.82
63554;BME280;49699;48.072;7.800;2022-08-27T03:29:36;99167.72;;;19.64;80.70
63554;BME280;49699;48.072;7.800;2022-08-27T03:32:04;99175.66;;;19.64;80.86
63554;BME280;49699;48.072;7.800;2022-08-27T03:34:29;99162.59;;;19.63;80.81
63554;BME280;49699;48.072;7.800;2022-08-27T03:36:55;99173.84;;;19.65;80.76
63554;BME280;49699;48.072;7.800;2022-08-27T03:39:20;99171.22;;;19.65;80.69
63554;BME280;49699;48.072;7.800;2022-08-27T03:41:46;99170.38;;;19.64;80.67
63554;BME280;49699;48.072;7.800;2022-08-27T03:44:11;99173.31;;;19.61;80.83
63554;BME280;49699;48.072;7.800;2022-08-27T03:46:37;99177.91;;;19.59;80.87
63554;BME280;49699;48.072;7.800;2022-08-27T03:49:03;99168.63;;;19.55;81.00
63554;BME280;49699;48.072;7.800;2022-08-27T03:51:28;99181.00;;;19.55;nan
63554;BME280;49699;48.072;7.800;2022-08-27T03:53:54;99168.63;;;19.55;81.08
63554;BME280;49699;48.072;7.800;2022-08-27T03:56:19;99171.28;;;19.55;81.28
63554;BME280;49699;48.072;7.800;2022-08-27T03:58:44;99174.59;;;19.57;81.19
63554;BME280;49699;48.072;7.800;2022-08-27T04:01:10;99173.47;;;19.60;81.13
63554;BME280;49699;48.072;7.800;2022-08-27T04:03:35;99170.69;;;19.61;81.08
63554;BME280;49699;48.072;7.800;2022-08-27T04:06:01;99166.91;;;19.64;80.98
63554;BME280;49699;48.072;7.800;2022-08-27T04:08:28;99169.53;;;19.64;81.15
63554;BME280;49699;48.072;7.800;2022-08-27T04:10:53;99168.56;;;19.65;81.17
63554;BME280;49699;48.072;7.800;2022-08-27T04:13:20;99169.41;;;19.65;80.98
63554;BME280;49699;48.072;7.800;2022-08-27T04:15:48;99162.31;;;19.66;81.24
63554;BME280;49699;48.072;7.800;2022-08-27T04:18:14;99170.38;;;19.64;81.24
63554;BME280;49699;48.072;7.800;2022-08-27T04:20:44;99165.94;;;19.65;81.29
63554;BME280;49699;48.072;7.800;2022-08-27T04:23:10;99165.78;;;19.66;81.44
63554;BME280;49699;48.072;7.800;2022-08-27T04:25:40;99166.75;;;19.65;81.45
63554;BME280;49699;48.072;7.800;2022-08-27T04:28:07;99173.84;;;19.65;81.58
63554;BME280;49699;48.072;7.800;2022-08-27T04:30:32;99180.78;;;19.66;81.70
63554;BME280;49699;48.072;7.800;2022-08-27T04:32:58;99185.38;;;19.64;81.61
63554;BME280;49699;48.072;7.800;2022-08-27T04:35:24;99189.00;;;19.63;81.76
63554;BME280;49699;48.072;7.800;2022-08-27T04:37:49;99196.63;;;19.66;81.77
63554;BME280;49699;48.072;7.800;2022-08-27T04:40:15;99190.50;;;19.65;81.67
63554;BME280;49699;48.072;7.800;2022-08-27T04:42:41;99193.59;;;19.61;81.87
63554;BME280;49699;48.072;7.800;2022-08-27T04:45:07;99191.94;;;19.60;81.98
63554;BME280;49699;48.072;7.800;2022-08-27T04:47:33;99191.25;;;19.58;82.01
63554;BME280;49699;48.072;7.800;2022-08-27T04:49:58;99202.34;;;19.61;82.01
63554;BME280;49699;48.072;7.800;2022-08-27T04:52:24;99192.31;;;19.65;81.55
63554;BME280;49699;48.072;7.800;2022-08-27T04:54:49;99200.25;;;19.65;81.61
63554;BME280;49699;48.072;7.800;2022-08-27T04:57:15;99199.41;;;19.64;81.59
63554;BME280;49699;48.072;7.800;2022-08-27T04:59:40;99200.09;;;19.66;81.43
63554;BME280;49699;48.072;7.800;2022-08-27T05:02:06;99205.06;;;19.69;81.43
63554;BME280;49699;48.072;7.800;2022-08-27T05:04:35;99202.44;;;19.69;81.35
63554;BME280;49699;48.072;7.800;2022-08-27T05:07:02;99203.09;;;19.71;81.49
63554;BME280;49699;48.072;7.800;2022-08-27T05:09:28;99210.03;;;19.72;81.39
63554;BME280;49699;48.072;7.800;2022-08-27T05:11:54;99205.72;;;19.71;81.39
63554;BME280;49699;48.072;7.800;2022-08-27T05:14:20;99213.19;;;19.76;81.24
63554;BME280;49699;48.072;7.800;2022-08-27T05:16:46;99213.19;;;19.76;81.39
63554;BME280;49699;48.072;7.800;2022-08-27T05:19:12;99214.19;;;19.75;81.52
63554;BME280;49699;48.072;7.800;2022-08-27T05:21:46;99213.19;;;19.76;81.46
63554;BME280;49699;48.072;7.800;2022-08-27T05:24:12;99213.06;;;19.77;81.38
63554;BME280;49699;48.072;7.800;2022-08-27T05:26:38;99215.53;;;19.79;81.56
63554;BME280;49699;48.072;7.800;2022-08-27T05:29:04;99210.41;;;19.77;81.54
63554;BME280;49699;48.072;7.800;2022-08-27T05:31:31;99206.94;;;19.77;81.62
63554;BME280;49699;48.072;7.800;2022-08-27T05:33:56;99213.88;;;19.78;81.64
63554;BME280;49699;48.072;7.800;2022-08-27T05:36:28;99211.94;;;19.80;81.73
63554;BME280;49699;48.072;7.800;2022-08-27T05:38:55;99209.81;;;19.84;81.55
63554;BME280;49699;48.072;7.800;2022-08-27T05:41:24;99203.25;;;19.88;81.51
63554;BME280;49699;48.072;7.800;2022-08-27T05:43:52;99217.63;;;19.93;81.41
63554;BME280;49699;48.072;7.800;2022-08-27T05:46:20;99211.53;;;19.93;81.38
63554;BME280;49699;48.072;7.800;2022-08-27T05:48:46;99215.00;;;19.93;81.43
63554;BME280;49699;48.072;7.800;2022-08-27T05:51:18;99215.81;;;19.94;81.44
63554;BME280;49699;48.072;7.800;2022-08-27T05:53:44;99209.25;;;19.98;81.25
63554;BME280;49699;48.072;7.800;2022-08-27T05:56:16;99214.78;;;20.04;81.10
63554;BME280;49699;48.072;7.800;2022-08-27T05:58:42;99208.31;;;20.07;81.14
63554;BME280;49699;48.072;7.800;2022-08-27T06:01:26;99213.00;;;20.13;80.96
63554;BME280;49699;48.072;7.800;2022-08-27T06:03:52;99212.69;;;20.16;80.77
63554;BME280;49699;48.072;7.800;2022-08-27T06:06:19;99203.50;;;20.20;80.69
63554;BME280;49699;48.072;7.800;2022-08-27T06:08:48;99206.66;;;20.24;80.67
63554;BME280;49699;48.072;7.800;2022-08-27T06:11:14;99211.44;;;20.28;80.48
63554;BME280;49699;48.072;7.800;2022-08-27T06:13:39;99203.91;;;20.33;80.30
63554;BME280;49699;48.072;7.800;2022-08-27T06:16:10;99200.13;;;20.36;80.22
63554;BME280;49699;48.072;7.800;2022-08-27T06:18:41;99202.16;;;20.42;79.97
63554;BME280;49699;48.072;7.800;2022-08-27T06:21:08;99206.28;;;20.44;79.89
63554;BME280;49699;48.072;7.800;2022-08-27T06:23:34;99202.50;;;20.47;79.92
63554;BME280;49699;48.072;7.800;2022-08-27T06:26:00;99197.59;;;20.52;80.01
63554;BME280;49699;48.072;7.800;2022-08-27T06:28:27;99201.59;;;20.56;79.75
63554;BME280;49699;48.072;7.800;2022-08-27T06:33:35;99194.88;;;20.70;78.92
63554;BME280;49699;48.072;7.800;2022-08-27T06:36:02;99201.81;;;20.71;78.92
63554;BME280;49699;48.072;7.800;2022-08-27T06:38:30;99200.16;;;20.70;78.74
63554;BME280;49699;48.072;7.800;2022-08-27T06:40:55;99203.31;;;20.73;78.81
63554;BME280;49699;48.072;7.800;2022-08-27T06:43:22;99206.47;;;20.77;78.51
63554;BME280;49699;48.072;7.800;2022-08-27T06:45:48;99207.94;;;20.79;78.29
63554;BME280;49699;48.072;7.800;2022-08-27T06:48:13;99206.13;;;20.80;78.27
63554;BME280;49699;48.072;7.800;2022-08-27T06:50:40;99205.97;;;20.82;78.29
63554;BME280;49699;48.072;7.800;2022-08-27T06:53:06;99206.13;;;20.80;78.30
63554;BME280;49699;48.072;7.800;2022-08-27T06:55:40;99198.03;;;20.82;78.32
63554;BME280;49699;48.072;7.800;2022-08-27T06:58:06;99209.47;;;20.82;78.15
63554;BME280;49699;48.072;7.800;2022-08-27T07:00:31;99209.63;;;20.80;77.96
63554;BME280;49699;48.072;7.800;2022-08-27T07:02:57;99206.13;;;20.80;77.85
63554;BME280;49699;48.072;7.800;2022-08-27T07:05:22;99207.66;;;20.83;77.84
63554;BME280;49699;48.072;7.800;2022-08-27T07:07:47;99210.59;;;20.79;77.73
63554;BME280;49699;48.072;7.800;2022-08-27T07:10:13;99208.16;;;20.78;77.92
63554;BME280;49699;48.072;7.800;2022-08-27T07:12:38;99202.66;;;20.79;77.63
63554;BME280;49699;48.072;7.800;2022-08-27T07:15:04;99203.50;;;20.80;77.68
63554;BME280;49699;48.072;7.800;2022-08-27T07:17:29;99202.19;;;20.84;77.69
63554;BME280;49699;48.072;7.800;2022-08-27T07:19:55;99202.03;;;20.86;77.60
63554;BME280;49699;48.072;7.800;2022-08-27T07:22:20;99213.44;;;20.86;77.72
63554;BME280;49699;48.072;7.800;2022-08-27T07:24:46;99207.31;;;20.86;77.53
63554;BME280;49699;48.072;7.800;2022-08-27T07:27:11;99213.13;;;20.89;77.55
63554;BME280;49699;48.072;7.800;2022-08-27T07:29:37;99217.44;;;20.90;77.36
63554;BME280;49699;48.072;7.800;2022-08-27T07:32:03;99209.88;;;20.95;77.31
63554;BME280;49699;48.072;7.800;2022-08-27T07:34:29;99216.47;;;20.99;77.11
63554;BME280;49699;48.072;7.800;2022-08-27T07:36:54;99210.88;;;21.02;77.10
63554;BME280;49699;48.072;7.800;2022-08-27T07:39:19;99215.00;;;21.05;77.04
63554;BME280;49699;48.072;7.800;2022-08-27T07:41:45;99217.34;;;21.08;76.79
63554;BME280;49699;48.072;7.800;2022-08-27T07:44:29;99215.22;;;21.11;76.68
63554;BME280;49699;48.072;7.800;2022-08-27T07:46:54;99222.81;;;21.14;76.78
63554;BME280;49699;48.072;7.800;2022-08-27T07:49:21;99224.00;;;21.20;76.60
63554;BME280;49699;48.072;7.800;2022-08-27T07:51:47;99227.69;;;21.27;76.74
63554;BME280;49699;48.072;7.800;2022-08-27T07:54:13;99223.22;;;21.36;76.39
63554;BME280;49699;48.072;7.800;2022-08-27T07:56:39;99223.41;;;21.42;76.14
63554;BME280;49699;48.072;7.800;2022-08-27T07:59:05;99220.44;;;21.45;76.02
63554;BME280;49699;48.072;7.800;2022-08-27T08:01:31;99216.81;;;21.55;75.91
63554;BME280;49699;48.072;7.800;2022-08-27T08:03:56;99211.03;;;21.59;75.58
63554;BME280;49699;48.072;7.800;2022-08-27T08:06:22;99211.06;;;21.67;75.48
63554;BME280;49699;48.072;7.800;2022-08-27T08:08:47;99210.03;;;21.68;75.24
63554;BME280;49699;48.072;7.800;2022-08-27T08:11:15;99223.13;;;21.70;75.15
63554;BME280;49699;48.072;7.800;2022-08-27T08:13:42;99217.16;;;21.68;75.00
63554;BME280;49699;48.072;7.800;2022-08-27T08:16:08;99220.97;;;21.73;74.94
63554;BME280;49699;48.072;7.800;2022-08-27T08:18:34;99221.00;;;21.81;74.51
63554;BME280;49699;48.072;7.800;2022-08-27T08:21:02;99230.41;;;21.92;74.05
63554;BME280;49699;48.072;7.800;2022-08-27T08:23:28;99227.66;;;22.02;73.99
63554;BME280;49699;48.072;7.800;2022-08-27T08:25:54;99226.47;;;22.12;73.40
63554;BME280;49699;48.072;7.800;2022-08-27T08:28:19;99233.41;;;22.22;73.15
63554;BME280;49699;48.072;7.800;2022-08-27T08:30:45;99231.91;;;22.27;72.94
63554;BME280;49699;48.072;7.800;2022-08-27T08:33:12;99236.41;;;22.35;72.78
63554;BME280;49699;48.072;7.800;2022-08-27T08:35:38;99239.84;;;22.43;72.53
63554;BME280;49699;48.072;7.800;2022-08-27T08:38:04;99236.03;;;22.54;72.21
63554;BME280;49699;48.072;7.800;2022-08-27T08:40:41;99231.34;;;22.64;71.73
63554;BME280;49699;48.072;7.800;2022-08-27T08:45:52;99235.13;;;22.86;71.05
63554;BME280;49699;48.072;7.800;2022-08-27T08:48:19;99223.19;;;22.90;70.82
63554;BME280;49699;48.072;7.800;2022-08-27T08:53:44;99223.75;;;23.08;70.38
63554;BME280;49699;48.072;7.800;2022-08-27T08:56:20;99228.16;;;23.24;70.13
63554;BME280;49699;48.072;7.800;2022-08-27T08:58:51;99227.94;;;23.34;69.66
63554;BME280;49699;48.072;7.800;2022-08-27T09:01:20;99223.59;;;23.41;69.23
63554;BME280;49699;48.072;7.800;2022-08-27T09:03:55;99230.66;;;23.57;69.06
63554;BME280;49699;48.072;7.800;2022-08-27T09:06:42;99221.50;;;23.82;68.35
63554;BME280;49699;48.072;7.800;2022-08-27T09:12:29;99225.06;;;24.12;67.18
63554;BME280;49699;48.072;7.800;2022-08-27T09:15:01;99220.63;;;24.04;67.42
63554;BME280;49699;48.072;7.800;2022-08-27T09:17:29;99221.22;;;24.14;66.65
63554;BME280;49699;48.072;7.800;2022-08-27T09:19:54;99213.69;;;24.41;66.19
63554;BME280;49699;48.072;7.800;2022-08-27T09:27:18;99205.16;;;24.75;64.80
63554;BME280;49699;48.072;7.800;2022-08-27T09:29:52;99215.59;;;24.76;64.89
63554;BME280;49699;48.072;7.800;2022-08-27T09:32:27;99223.41;;;24.78;64.91
63554;BME280;49699;48.072;7.800;2022-08-27T09:34:57;99225.44;;;24.76;65.03
63554;BME280;49699;48.072;7.800;2022-08-27T09:37:27;99220.03;;;24.69;65.29
63554;BME280;49699;48.072;7.800;2022-08-27T09:40:05;99218.28;;;24.62;65.31
63554;BME280;49699;48.072;7.800;2022-08-27T09:42:37;99220.84;;;24.55;65.53
63554;BME280;49699;48.072;7.800;2022-08-27T09:45:08;99224.53;;;24.54;65.62
63554;BME280;49699;48.072;7.800;2022-08-27T09:47:47;99215.91;;;24.67;65.28
63554;BME280;49699;48.072;7.800;2022-08-27T09:50:15;99211.91;;;24.92;64.51
63554;BME280;49699;48.072;7.800;2022-08-27T09:52:48;99215.69;;;25.12;63.62
63554;BME280;49699;48.072;7.800;2022-08-27T09:55:34;99213.72;;;25.36;63.14
63554;BME280;49699;48.072;7.800;2022-08-27T09:58:05;99214.81;;;25.63;62.31
63554;BME280;49699;48.072;7.800;2022-08-27T10:00:39;99213.63;;;25.86;61.25
63554;BME280;49699;48.072;7.800;2022-08-27T10:03:06;99217.19;;;25.93;60.89
63554;BME280;49699;48.072;7.800;2022-08-27T10:05:38;99207.44;;;26.07;60.47
63554;BME280;49699;48.072;7.800;2022-08-27T10:10:51;99211.78;;;26.36;59.54
63554;BME280;49699;48.072;7.800;2022-08-27T10:16:53;99192.59;;;26.47;58.67
63554;BME280;49699;48.072;7.800;2022-08-27T10:19:32;99195.97;;;26.35;58.97
63554;BME280;49699;48.072;7.800;2022-08-27T10:27:42;99194.19;;;26.42;58.39
63554;BME280;49699;48.072;7.800;2022-08-27T10:30:14;99189.44;;;26.37;58.25
63554;BME280;49699;48.072;7.800;2022-08-27T10:35:25;99178.56;;;26.39;57.80
63554;BME280;49699;48.072;7.800;2022-08-27T10:48:40;99172.63;;;25.87;58.76
63554;BME280;49699;48.072;7.800;2022-08-27T10:51:25;99173.34;;;26.03;58.58
63554;BME280;49699;48.072;7.800;2022-08-27T10:53:59;99177.44;;;26.26;57.68
63554;BME280;49699;48.072;7.800;2022-08-27T10:57:14;99180.41;;;26.38;57.63
63554;BME280;49699;48.072;7.800;2022-08-27T10:59:56;99181.94;;;26.26;57.77
63554;BME280;49699;48.072;7.800;2022-08-27T11:02:49;99188.66;;;26.15;58.01
63554;BME280;49699;48.072;7.800;2022-08-27T11:05:22;99184.34;;;26.21;58.03
63554;BME280;49699;48.072;7.800;2022-08-27T11:08:17;99181.69;;;26.21;57.86
63554;BME280;49699;48.072;7.800;2022-08-27T11:10:50;99168.59;;;26.26;57.88
63554;BME280;49699;48.072;7.800;2022-08-27T11:13:30;99172.19;;;26.33;57.64
63554;BME280;49699;48.072;7.800;2022-08-27T11:15:58;99175.88;;;26.39;57.30
63554;BME280;49699;48.072;7.800;2022-08-27T11:18:36;99169.38;;;26.48;56.85
63554;BME280;49699;48.072;7.800;2022-08-27T11:21:11;99168.38;;;26.49;56.87
63554;BME280;49699;48.072;7.800;2022-08-27T11:23:45;99159.94;;;26.52;56.46
63554;BME280;49699;48.072;7.800;2022-08-27T11:26:11;99158.94;;;26.53;56.56
63554;BME280;49699;48.072;7.800;2022-08-27T11:28:43;99163.91;;;26.62;56.64
63554;BME280;49699;48.072;7.800;2022-08-27T11:34:00;99162.94;;;26.77;55.59
63554;BME280;49699;48.072;7.800;2022-08-27T11:42:05;99156.06;;;26.95;55.33
63554;BME280;49699;48.072;7.800;2022-08-27T11:44:32;99147.66;;;26.99;54.93
63554;BME280;49699;48.072;7.800;2022-08-27T11:47:13;99147.06;;;27.03;54.46
63554;BME280;49699;48.072;7.800;2022-08-27T11:52:05;99130.63;;;27.00;54.12
63554;BME280;49699;48.072;7.800;2022-08-27T11:57:14;99144.63;;;27.15;53.61
63554;BME280;49699;48.072;7.800;2022-08-27T11:59:40;99127.34;;;27.11;53.82
63554;BME280;49699;48.072;7.800;2022-08-27T12:02:25;99128.97;;;26.99;54.07
63554;BME280;49699;48.072;7.800;2022-08-27T12:04:52;99128.69;;;26.80;54.29
63554;BME280;49699;48.072;7.800;2022-08-27T12:18:33;99142.50;;;26.49;54.88
63554;BME280;49699;48.072;7.800;2022-08-27T12:26:33;99135.88;;;26.39;54.82
63554;BME280;49699;48.072;7.800;2022-08-27T12:29:28;99137.56;;;26.46;54.38
63554;BME280;49699;48.072;7.800;2022-08-27T12:35:19;99134.59;;;26.76;53.65
63554;BME280;49699;48.072;7.800;2022-08-27T12:40:28;99131.16;;;26.88;53.77
63554;BME280;49699;48.072;7.800;2022-08-27T12:43:24;99127.53;;;26.96;53.48
63554;BME280;49699;48.072;7.800;2022-08-27T12:45:56;99135.53;;;26.96;53.69
63554;BME280;49699;48.072;7.800;2022-08-27T12:48:24;99134.72;;;26.95;53.90
63554;BME280;49699;48.072;7.800;2022-08-27T12:50:57;99130.44;;;27.01;53.76
63554;BME280;49699;48.072;7.800;2022-08-27T13:02:23;99116.66;;;27.11;53.38
63554;BME280;49699;48.072;7.800;2022-08-27T13:04:27;99124.47;;;27.06;53.26
63554;BME280;49699;48.072;7.800;2022-08-27T13:06:55;99122.44;;;27.14;52.95
63554;BME280;49699;48.072;7.800;2022-08-27T13:09:35;99123.50;;;27.20;52.88
63554;BME280;49699;48.072;7.800;2022-08-27T13:12:03;99124.50;;;27.19;52.66
63554;BME280;49699;48.072;7.800;2022-08-27T13:14:39;99120.59;;;27.15;52.90
63554;BME280;49699;48.072;7.800;2022-08-27T13:17:10;99121.63;;;27.20;52.77
63554;BME280;49699;48.072;7.800;2022-08-27T13:19:58;99129.66;;;27.27;52.69
63554;BME280;49699;48.072;7.800;2022-08-27T13:22:30;99127.59;;;27.16;52.85
63554;BME280;49699;48.072;7.800;2022-08-27T13:24:57;99117.13;;;27.21;52.71
63554;BME280;49699;48.072;7.800;2022-08-27T13:27:33;99123.28;;;27.28;52.52
63554;BME280;49699;48.072;7.800;2022-08-27T13:30:06;99115.25;;;27.28;52.50
63554;BME280;49699;48.072;7.800;2022-08-27T13:32:32;99107.44;;;27.26;52.75
63554;BME280;49699;48.072;7.800;2022-08-27T13:34:59;99112.59;;;27.41;52.18
63554;BME280;49699;48.072;7.800;2022-08-27T13:37:34;99104.41;;;27.49;51.83
63554;BME280;49699;48.072;7.800;2022-08-27T13:40:00;99105.66;;;27.60;51.46
63554;BME280;49699;48.072;7.800;2022-08-27T13:42:26;99105.25;;;27.63;51.45
63554;BME280;49699;48.072;7.800;2022-08-27T13:44:58;99106.91;;;27.64;51.43
63554;BME280;49699;48.072;7.800;2022-08-27T13:47:27;99114.31;;;27.69;50.98
63554;BME280;49699;48.072;7.800;2022-08-27T13:50:12;99110.19;;;27.73;51.16
63554;BME280;49699;48.072;7.800;2022-08-27T13:52:42;99112.22;;;27.77;50.64
63554;BME280;49699;48.072;7.800;2022-08-27T13:55:26;99110.16;;;27.79;50.61
63554;BME280;49699;48.072;7.800;2022-08-27T13:57:53;99118.41;;;27.78;51.06
63554;BME280;49699;48.072;7.800;2022-08-27T14:00:22;99121.31;;;27.70;51.27
63554;BME280;49699;48.072;7.800;2022-08-27T14:02:49;99115.09;;;27.49;51.53
63554;BME280;49699;48.072;7.800;2022-08-27T14:07:52;99122.88;;;27.31;51.91
63554;BME280;49699;48.072;7.800;2022-08-27T14:10:28;99121.66;;;27.34;51.92
63554;BME280;49699;48.072;7.800;2022-08-27T14:13:07;99116.72;;;27.37;51.63
63554;BME280;49699;48.072;7.800;2022-08-27T14:15:36;99117.53;;;27.44;51.50
63554;BME280;49699;48.072;7.800;2022-08-27T14:18:05;99123.13;;;27.56;51.42
63554;BME280;49699;48.072;7.800;2022-08-27T14:20:32;99122.28;;;27.49;51.42
63554;BME280;49699;48.072;7.800;2022-08-27T14:22:58;99123.53;;;27.40;51.36
63554;BME280;49699;48.072;7.800;2022-08-27T14:25:24;99117.50;;;27.24;51.88
63554;BME280;49699;48.072;7.800;2022-08-27T14:27:51;99123.47;;;27.13;51.97
63554;BME280;49699;48.072;7.800;2022-08-27T14:30:19;99128.97;;;27.05;52.46
63554;BME280;49699;48.072;7.800;2022-08-27T14:32:45;99124.47;;;26.99;52.42
63554;BME280;49699;48.072;7.800;2022-08-27T14:35:12;99124.78;;;26.89;52.81
63554;BME280;49699;48.072;7.800;2022-08-27T14:37:40;99120.66;;;26.80;53.01
63554;BME280;49699;48.072;7.800;2022-08-27T14:40:07;99121.06;;;26.77;53.32